DW9780 Oslo NO current weather conditions

sailwx.info

Wind from 166

Air temperature 13.9° C
Dewpoint -41.5° C

Last reported at 2018-May-24 06:01 UTC.
Time now 2018-May-24 06:23 UTC

Location: N 59°47' E 010°42'.
View on Google Maps.

See reports from other nearby stations

  
Tides and Currents Weather Stations Pressure Air Temp Water Temp Dewpoint Dewpoint Depression Visibility Wind Speed Wind Dir Waves Ship Positions
date/time (UTC)wind fromknots sea level pressurealtimeterstation pressurevisibilityair tempwater tempwave heightnotes
2018-May-24 06:01 166 13.9
2018-May-24 05:46 147 13.3
2018-May-24 05:31 141 1 gusting 4 12.8
2018-May-24 05:16 164 0 gusting 4 12.8
2018-May-24 05:01 161 1 gusting 4 12.2
2018-May-24 04:46 155 1 gusting 4 12.2
2018-May-24 04:31 200 12.2
2018-May-24 04:16 200 11.7
2018-May-24 04:00 207 11.1
2018-May-24 03:45 207 11.1
2018-May-24 03:30 207 11.7
2018-May-24 03:15 173 11.1
2018-May-24 03:00 173 11.1
2018-May-24 02:45 172 10.6
2018-May-24 02:30 167 10.6
2018-May-24 02:15 215 10.0
2018-May-24 02:00 215 10.0
2018-May-24 01:45 215 10.0
2018-May-24 01:30 215 10.0
2018-May-24 01:15 215 10.6
2018-May-24 01:00 215 11.7
2018-May-24 00:45 215 11.7
2018-May-24 00:29 219 11.1
2018-May-24 00:14 219 11.1
2018-May-23 23:59 219 11.7
2018-May-23 23:44 219 11.7
2018-May-23 23:29 189 12.2
2018-May-23 23:14 189 13.3
2018-May-23 22:59 189 13.9
2018-May-23 22:44 189 13.9
2018-May-23 22:29 189 14.4
2018-May-23 22:14 189 14.4
2018-May-23 21:59 194 15.0
2018-May-23 21:44 192 15.6
2018-May-23 21:29 183 16.1
2018-May-23 21:13 200 0 gusting 2 16.1
2018-May-23 20:58 164 16.7
2018-May-23 20:50 225 0 gusting 2 17.2
2018-May-23 20:41 229 0 gusting 3 17.8
2018-May-23 20:32 215 0 gusting 3 17.8
2018-May-23 20:23 229 0 gusting 3 17.8
2018-May-23 20:14 189 0 gusting 2 17.8
2018-May-23 20:05 187 0 gusting 3 18.3
2018-May-23 19:56 239 18.3
2018-May-23 19:47 202 0 gusting 3 18.3
2018-May-23 19:38 219 0 gusting 5 18.9
2018-May-23 19:29 194 18.9
2018-May-23 19:20 194 19.4
2018-May-23 19:11 203 0 gusting 2 19.4
2018-May-23 19:09 192 19.4
2018-May-23 19:02 212 0 gusting 3 20.0
2018-May-23 18:53 202 1 gusting 4 20.0
2018-May-23 18:33 187 2 gusting 6 20.6
2018-May-23 18:15 150 1 gusting 5 21.1
2018-May-23 17:57 213 21.7
2018-May-23 17:39 208 1 gusting 6 22.8
2018-May-23 17:19 171 0 gusting 7 22.8
2018-May-23 17:01 129 4 gusting 9 23.3
2018-May-23 16:43 177 4 gusting 7 23.9
2018-May-23 16:27 147 2 gusting 8 23.9
2018-May-23 16:11 182 2 gusting 6 25.0
2018-May-23 16:07 156 1 gusting 6 24.4
2018-May-23 16:02 184 2 gusting 7 24.4
2018-May-23 15:53 171 2 gusting 8 25.0
2018-May-23 15:49 185 1 gusting 7 24.4
2018-May-23 15:44 189 3 gusting 8 24.4
2018-May-23 15:35 186 3 gusting 7 25.0
2018-May-23 15:31 232 3 gusting 7 25.0
2018-May-23 15:26 173 2 gusting 7 25.0
2018-May-23 15:17 175 3 gusting 7 25.0
2018-May-23 15:11 194 2 gusting 6 24.4
2018-May-23 15:08 166 3 gusting 8 25.0
2018-May-23 14:59 162 3 gusting 9 25.0
2018-May-23 14:53 200 2 gusting 8 24.4
2018-May-23 14:36 134 1 gusting 6 25.0
2018-May-23 14:21 168 0 gusting 4 25.0
2018-May-23 14:06 064 3 gusting 8 24.4
2018-May-23 13:51 132 0 gusting 3 25.6
2018-May-23 13:36 100 25.6
2018-May-23 13:21 110 1 gusting 3 25.6
2018-May-23 13:05 113 1 gusting 4 25.0
2018-May-23 12:50 120 1 gusting 3 25.6
2018-May-23 12:35 090 0 gusting 3 25.0
2018-May-23 12:20 113 0 gusting 3 25.0
2018-May-23 12:05 022 24.4
2018-May-23 11:50 061 25.0
2018-May-23 11:35 080 23.9
2018-May-23 11:20 120 23.3
2018-May-23 11:05 130 1 gusting 6 22.8
2018-May-23 10:50 123 1 gusting 7 22.2
2018-May-23 10:35 026 22.2
2018-May-23 10:20 078 21.7
2018-May-23 10:05 110 0 gusting 3 21.1
2018-May-23 09:49 135 0 gusting 5 21.1
2018-May-23 09:34 119 20.6
2018-May-23 09:19 121 0 gusting 6 20.0
2018-May-23 09:04 098 20.0
2018-May-23 08:49 115 1 gusting 4 20.0
2018-May-23 08:34 339 0 gusting 3 18.9
2018-May-23 08:19 316 18.9
2018-May-23 08:04 021 0 gusting 1 18.9
2018-May-23 07:49 023 0 gusting 6 17.8
2018-May-23 07:34 038 17.2
2018-May-23 07:19 064 17.2
2018-May-23 07:04 009 17.2
2018-May-23 06:49 048 17.2
2018-May-23 06:33 015 0 gusting 3 16.1
2018-May-23 06:18 326 0 gusting 3 16.1
2018-May-23 06:03 040 15.6
2018-May-23 05:48 321 0 gusting 3 15.0
2018-May-23 05:33 021 15.0
2018-May-23 05:18 005 14.4
2018-May-23 05:03 025 1 gusting 7 13.9
2018-May-23 04:48 039 13.3
2018-May-23 04:33 005 0 gusting 7 13.3
2018-May-23 04:18 355 12.8
2018-May-23 04:03 026 12.8
2018-May-23 03:48 344 12.2
2018-May-23 03:33 005 12.2
2018-May-23 03:17 011 11.7
2018-May-23 03:02 329 11.7
2018-May-23 02:47 065 11.7
2018-May-23 02:32 019 11.7
2018-May-23 02:17 350 11.1
2018-May-23 02:02 005 11.1
2018-May-23 01:47 319 11.1
2018-May-23 01:32 225 11.1
2018-May-23 01:17 225 11.1
2018-May-23 01:02 225 11.1
2018-May-23 00:47 200 10.6
2018-May-23 00:32 200 11.1
2018-May-23 00:17 200 11.1
2018-May-23 00:02 200 11.1
2018-May-22 23:46 200 11.7
2018-May-22 23:31 200 13.3
2018-May-22 23:16 180 0 gusting 4 13.9
2018-May-22 23:01 252 0 gusting 4 14.4
2018-May-22 22:46 184 0 gusting 2 14.4
2018-May-22 22:31 164 13.9
2018-May-22 22:16 281 13.3
2018-May-22 22:01 281 13.3
2018-May-22 21:46 281 14.4
2018-May-22 21:31 281 15.0
2018-May-22 21:16 207 16.1
2018-May-22 21:01 205 16.1
2018-May-22 20:46 170 15.6
2018-May-22 20:31 196 15.0
2018-May-22 20:16 196 15.6
2018-May-22 20:01 196 16.7
2018-May-22 19:45 196 16.7
2018-May-22 19:30 196 17.2
2018-May-22 19:15 161 17.8
2018-May-22 19:00 161 18.9
2018-May-22 18:45 161 20.0
2018-May-22 18:30 161 0 gusting 2 20.0
2018-May-22 18:15 140 20.6
2018-May-22 18:00 154 1 gusting 5 21.1
2018-May-22 17:45 180 2 gusting 6 21.1
2018-May-22 17:30 143 3 gusting 7 21.7
2018-May-22 17:15 199 2 gusting 6 22.2
2018-May-22 17:00 149 3 gusting 9 22.2
2018-May-22 16:45 157 1 gusting 8 22.2
2018-May-22 16:30 204 3 gusting 9 22.2
2018-May-22 16:14 159 2 gusting 8 22.8
2018-May-22 15:59 136 3 gusting 8 22.8
2018-May-22 15:44 199 3 gusting 7 23.3
2018-May-22 15:29 149 1 gusting 6 23.3
2018-May-22 15:14 216 0 gusting 6 23.3
2018-May-22 14:59 139 1 gusting 6 23.3
2018-May-22 14:44 149 3 gusting 7 23.9
2018-May-22 14:29 140 1 gusting 7 23.9
2018-May-22 14:14 186 2 gusting 7 23.9
2018-May-22 13:59 258 3 gusting 7 23.3
2018-May-22 13:44 250 1 gusting 7 23.9
2018-May-22 13:29 119 4 gusting 8 23.9
2018-May-22 13:14 126 0 gusting 5 24.4
2018-May-22 12:58 360 25.0
2018-May-22 12:43 132 0 gusting 3 25.0
2018-May-22 12:28 096 25.0
2018-May-22 12:13 078 0 gusting 5 23.3
2018-May-22 11:58 099 24.4
2018-May-22 11:43 061 24.4
2018-May-22 11:28 094 0 gusting 3 22.2
2018-May-22 11:13 081 21.7
2018-May-22 10:58 073 0 gusting 2 21.7
2018-May-22 10:43 076 0 gusting 3 21.1
2018-May-22 10:28 103 20.6
2018-May-22 10:13 085 0 gusting 3 20.6
2018-May-22 09:58 097 0 gusting 2 20.0
2018-May-22 09:43 092 19.4
2018-May-22 09:27 067 1 gusting 5 18.9
2018-May-22 09:12 100 0 gusting 3 18.3
2018-May-22 08:57 078 18.3
2018-May-22 08:42 123 1 gusting 3 17.8
2018-May-22 08:27 117 0 gusting 3 17.8
2018-May-22 08:12 126 0 gusting 3 17.8
2018-May-22 07:57 104 17.2
2018-May-22 07:42 084 1 gusting 3 16.7
2018-May-22 07:27 111 0 gusting 3 16.1
2018-May-22 07:12 116 15.6
2018-May-22 06:57 116 15.0
2018-May-22 06:42 119 15.0
2018-May-22 06:27 066 13.9
2018-May-22 06:11 155 13.3